sensor_id;sensor_type;location;lat;lon;timestamp;pressure;altitude;pressure_sealevel;temperature;humidity
58385;BME280;44185;47.844;8.966;2023-03-03T00:00:43;96285.59;;;-0.28;100.00
58385;BME280;44185;47.844;8.966;2023-03-03T00:03:10;96287.44;;;-0.31;100.00
58385;BME280;44185;47.844;8.966;2023-03-03T00:05:38;96289.47;;;-0.38;100.00
58385;BME280;44185;47.844;8.966;2023-03-03T00:08:04;96284.28;;;-0.38;100.00
58385;BME280;44185;47.844;8.966;2023-03-03T00:10:31;96292.38;;;-0.46;100.00
58385;BME280;44185;47.844;8.966;2023-03-03T00:12:56;96288.34;;;-0.53;100.00
58385;BME280;44185;47.844;8.966;2023-03-03T00:15:23;96287.50;;;-0.54;100.00
58385;BME280;44185;47.844;8.966;2023-03-03T00:17:50;96293.47;;;-0.52;100.00
58385;BME280;44185;47.844;8.966;2023-03-03T00:20:32;96304.53;;;-0.47;100.00
58385;BME280;44185;47.844;8.966;2023-03-03T00:23:12;96301.88;;;-0.45;100.00
58385;BME280;44185;47.844;8.966;2023-03-03T00:25:42;96294.06;;;-0.45;100.00
58385;BME280;44185;47.844;8.966;2023-03-03T00:28:17;96295.22;;;-0.52;100.00
58385;BME280;44185;47.844;8.966;2023-03-03T00:30:44;96297.91;;;-0.54;100.00
58385;BME280;44185;47.844;8.966;2023-03-03T00:33:22;96297.31;;;-0.40;100.00
58385;BME280;44185;47.844;8.966;2023-03-03T00:35:49;96290.31;;;-0.38;100.00
58385;BME280;44185;47.844;8.966;2023-03-03T00:38:16;96302.28;;;-0.34;100.00
58385;BME280;44185;47.844;8.966;2023-03-03T00:40:44;96296.63;;;-0.43;100.00
58385;BME280;44185;47.844;8.966;2023-03-03T00:43:16;96293.41;;;-0.50;100.00
58385;BME280;44185;47.844;8.966;2023-03-03T00:45:44;96294.34;;;-0.51;100.00
58385;BME280;44185;47.844;8.966;2023-03-03T00:48:20;96284.59;;;-0.46;100.00
58385;BME280;44185;47.844;8.966;2023-03-03T00:50:45;96297.31;;;-0.40;100.00
58385;BME280;44185;47.844;8.966;2023-03-03T00:53:12;96284.94;;;-0.33;100.00
58385;BME280;44185;47.844;8.966;2023-03-03T00:55:38;96291.19;;;-0.37;100.00
58385;BME280;44185;47.844;8.966;2023-03-03T00:58:05;96287.88;;;-0.42;100.00
58385;BME280;44185;47.844;8.966;2023-03-03T01:00:31;96283.81;;;-0.48;100.00
58385;BME280;44185;47.844;8.966;2023-03-03T01:02:58;96291.78;;;-0.53;100.00
58385;BME280;44185;47.844;8.966;2023-03-03T01:05:26;96289.63;;;-0.64;100.00
58385;BME280;44185;47.844;8.966;2023-03-03T01:07:51;96280.03;;;-0.62;100.00
58385;BME280;44185;47.844;8.966;2023-03-03T01:10:17;96289.44;;;-0.59;100.00
58385;BME280;44185;47.844;8.966;2023-03-03T01:12:42;96282.34;;;-0.56;100.00
58385;BME280;44185;47.844;8.966;2023-03-03T01:15:11;96286.00;;;-0.60;100.00
58385;BME280;44185;47.844;8.966;2023-03-03T01:17:38;96288.59;;;-0.60;100.00
58385;BME280;44185;47.844;8.966;2023-03-03T01:20:04;96281.97;;;-0.67;100.00
58385;BME280;44185;47.844;8.966;2023-03-03T01:22:29;96284.56;;;-0.67;100.00
58385;BME280;44185;47.844;8.966;2023-03-03T01:24:55;96286.72;;;-0.79;100.00
58385;BME280;44185;47.844;8.966;2023-03-03T01:27:20;96287.81;;;-0.84;100.00
58385;BME280;44185;47.844;8.966;2023-03-03T01:29:46;96287.56;;;-0.78;100.00
58385;BME280;44185;47.844;8.966;2023-03-03T01:32:12;96287.88;;;-0.86;100.00
58385;BME280;44185;47.844;8.966;2023-03-03T01:34:38;96288.19;;;-0.94;100.00
58385;BME280;44185;47.844;8.966;2023-03-03T01:37:03;96293.41;;;-0.95;100.00
58385;BME280;44185;47.844;8.966;2023-03-03T01:39:29;96289.44;;;-1.04;100.00
58385;BME280;44185;47.844;8.966;2023-03-03T01:41:54;96290.75;;;-1.16;100.00
58385;BME280;44185;47.844;8.966;2023-03-03T01:44:20;96285.50;;;-1.15;100.00
58385;BME280;44185;47.844;8.966;2023-03-03T01:46:51;96290.34;;;-1.05;100.00
58385;BME280;44185;47.844;8.966;2023-03-03T01:49:21;96289.50;;;-1.06;100.00
58385;BME280;44185;47.844;8.966;2023-03-03T01:51:51;96289.97;;;-1.18;100.00
58385;BME280;44185;47.844;8.966;2023-03-03T01:54:19;96280.47;;;-1.19;100.00
58385;BME280;44185;47.844;8.966;2023-03-03T01:56:46;96276.25;;;-1.22;100.00
58385;BME280;44185;47.844;8.966;2023-03-03T01:59:15;96276.75;;;-1.12;100.00
58385;BME280;44185;47.844;8.966;2023-03-03T02:01:42;96282.38;;;-1.01;100.00
58385;BME280;44185;47.844;8.966;2023-03-03T02:04:08;96280.31;;;-0.92;100.00
58385;BME280;44185;47.844;8.966;2023-03-03T02:06:37;96280.28;;;-0.91;100.00
58385;BME280;44185;47.844;8.966;2023-03-03T02:09:09;96276.56;;;-0.85;100.00
58385;BME280;44185;47.844;8.966;2023-03-03T02:11:37;96277.38;;;-0.83;100.00
58385;BME280;44185;47.844;8.966;2023-03-03T02:14:05;96275.13;;;-0.92;100.00
58385;BME280;44185;47.844;8.966;2023-03-03T02:16:30;96269.91;;;-0.92;100.00
58385;BME280;44185;47.844;8.966;2023-03-03T02:18:56;96270.88;;;-0.95;100.00
58385;BME280;44185;47.844;8.966;2023-03-03T02:21:23;96273.56;;;-0.96;100.00
58385;BME280;44185;47.844;8.966;2023-03-03T02:23:57;96266.34;;;-0.90;100.00
58385;BME280;44185;47.844;8.966;2023-03-03T02:26:27;96270.28;;;-0.79;100.00
58385;BME280;44185;47.844;8.966;2023-03-03T02:28:54;96267.75;;;-0.81;100.00
58385;BME280;44185;47.844;8.966;2023-03-03T02:31:22;96269.56;;;-0.83;100.00
58385;BME280;44185;47.844;8.966;2023-03-03T02:33:50;96269.44;;;-0.80;100.00
58385;BME280;44185;47.844;8.966;2023-03-03T02:36:19;96261.91;;;-0.86;100.00
58385;BME280;44185;47.844;8.966;2023-03-03T02:38:48;96266.72;;;-0.99;100.00
58385;BME280;44185;47.844;8.966;2023-03-03T02:41:25;96272.78;;;-0.98;100.00
58385;BME280;44185;47.844;8.966;2023-03-03T02:43:59;96267.44;;;-0.95;100.00
58385;BME280;44185;47.844;8.966;2023-03-03T02:46:25;96261.13;;;-0.88;100.00
58385;BME280;44185;47.844;8.966;2023-03-03T02:48:51;96268.28;;;-0.95;100.00
58385;BME280;44185;47.844;8.966;2023-03-03T02:51:17;96261.94;;;-1.10;100.00
58385;BME280;44185;47.844;8.966;2023-03-03T02:53:43;96269.75;;;-1.10;100.00
58385;BME280;44185;47.844;8.966;2023-03-03T02:56:08;96260.09;;;-1.06;100.00
58385;BME280;44185;47.844;8.966;2023-03-03T02:58:34;96264.84;;;-0.95;100.00
58385;BME280;44185;47.844;8.966;2023-03-03T03:01:01;96259.91;;;-1.02;100.00
58385;BME280;44185;47.844;8.966;2023-03-03T03:03:26;96259.28;;;-1.08;100.00
58385;BME280;44185;47.844;8.966;2023-03-03T03:05:52;96256.69;;;-1.08;100.00
58385;BME280;44185;47.844;8.966;2023-03-03T03:08:17;96253.75;;;-0.99;100.00
58385;BME280;44185;47.844;8.966;2023-03-03T03:10:42;96256.91;;;-0.91;100.00
58385;BME280;44185;47.844;8.966;2023-03-03T03:13:08;96263.22;;;-0.98;100.00
58385;BME280;44185;47.844;8.966;2023-03-03T03:15:34;96251.03;;;-0.96;100.00
58385;BME280;44185;47.844;8.966;2023-03-03T03:18:01;96260.16;;;-0.85;100.00
58385;BME280;44185;47.844;8.966;2023-03-03T03:20:26;96256.91;;;-0.91;100.00
58385;BME280;44185;47.844;8.966;2023-03-03T03:22:52;96260.25;;;-0.88;100.00
58385;BME280;44185;47.844;8.966;2023-03-03T03:25:17;96254.34;;;-0.92;100.00
58385;BME280;44185;47.844;8.966;2023-03-03T03:27:43;96260.97;;;-0.85;100.00
58385;BME280;44185;47.844;8.966;2023-03-03T03:30:09;96259.72;;;-0.74;100.00
58385;BME280;44185;47.844;8.966;2023-03-03T03:32:35;96265.94;;;-0.79;100.00
58385;BME280;44185;47.844;8.966;2023-03-03T03:35:02;96266.72;;;-0.99;100.00
58385;BME280;44185;47.844;8.966;2023-03-03T03:37:27;96263.88;;;-0.93;100.00
58385;BME280;44185;47.844;8.966;2023-03-03T03:39:53;96256.81;;;-0.89;100.00
58385;BME280;44185;47.844;8.966;2023-03-03T03:42:18;96263.75;;;-0.90;100.00
58385;BME280;44185;47.844;8.966;2023-03-03T03:44:44;96266.16;;;-0.85;100.00
58385;BME280;44185;47.844;8.966;2023-03-03T03:47:09;96263.66;;;-0.86;100.00
58385;BME280;44185;47.844;8.966;2023-03-03T03:49:35;96260.81;;;-0.80;100.00
58385;BME280;44185;47.844;8.966;2023-03-03T03:52:02;96259.03;;;-0.80;100.00
58385;BME280;44185;47.844;8.966;2023-03-03T03:54:27;96263.97;;;-0.72;100.00
58385;BME280;44185;47.844;8.966;2023-03-03T03:56:53;96268.00;;;-0.64;100.00
58385;BME280;44185;47.844;8.966;2023-03-03T03:59:19;96267.06;;;-0.63;100.00
58385;BME280;44185;47.844;8.966;2023-03-03T04:01:44;96260.97;;;-0.62;100.00
58385;BME280;44185;47.844;8.966;2023-03-03T04:04:10;96256.66;;;-0.63;100.00
58385;BME280;44185;47.844;8.966;2023-03-03T04:06:35;96263.41;;;-0.80;100.00
58385;BME280;44185;47.844;8.966;2023-03-03T04:09:02;96273.53;;;-0.74;100.00
58385;BME280;44185;47.844;8.966;2023-03-03T04:11:28;96266.41;;;-0.69;100.00
58385;BME280;44185;47.844;8.966;2023-03-03T04:13:53;96264.72;;;-0.70;100.00
58385;BME280;44185;47.844;8.966;2023-03-03T04:16:18;96262.78;;;-0.64;100.00
58385;BME280;44185;47.844;8.966;2023-03-03T04:18:44;96265.97;;;-0.58;100.00
58385;BME280;44185;47.844;8.966;2023-03-03T04:21:11;96264.16;;;-0.56;100.00
58385;BME280;44185;47.844;8.966;2023-03-03T04:23:36;96266.75;;;-0.56;100.00
58385;BME280;44185;47.844;8.966;2023-03-03T04:26:03;96270.16;;;-0.53;100.00
58385;BME280;44185;47.844;8.966;2023-03-03T04:28:29;96269.34;;;-0.56;100.00
58385;BME280;44185;47.844;8.966;2023-03-03T04:30:54;96268.53;;;-0.56;100.00
58385;BME280;44185;47.844;8.966;2023-03-03T04:33:20;96271.78;;;-0.51;100.00
58385;BME280;44185;47.844;8.966;2023-03-03T04:35:45;96270.84;;;-0.50;100.00
58385;BME280;44185;47.844;8.966;2023-03-03T04:38:11;96264.34;;;-0.60;100.00
58385;BME280;44185;47.844;8.966;2023-03-03T04:40:39;96279.91;;;-0.59;100.00
58385;BME280;44185;47.844;8.966;2023-03-03T04:43:06;96271.28;;;-0.61;100.00
58385;BME280;44185;47.844;8.966;2023-03-03T04:45:32;96274.81;;;-0.62;100.00
58385;BME280;44185;47.844;8.966;2023-03-03T04:47:57;96272.69;;;-0.52;100.00
58385;BME280;44185;47.844;8.966;2023-03-03T04:50:23;96274.31;;;-0.49;100.00
58385;BME280;44185;47.844;8.966;2023-03-03T04:52:48;96273.34;;;-0.47;100.00
58385;BME280;44185;47.844;8.966;2023-03-03T04:55:14;96273.41;;;-0.48;100.00
58385;BME280;44185;47.844;8.966;2023-03-03T04:57:39;96270.63;;;-0.43;100.00
58385;BME280;44185;47.844;8.966;2023-03-03T05:00:08;96274.06;;;-0.43;100.00
58385;BME280;44185;47.844;8.966;2023-03-03T05:02:33;96270.81;;;-0.48;100.00
58385;BME280;44185;47.844;8.966;2023-03-03T05:04:59;96264.00;;;-0.51;100.00
58385;BME280;44185;47.844;8.966;2023-03-03T05:07:24;96271.84;;;-0.52;100.00
58385;BME280;44185;47.844;8.966;2023-03-03T05:09:50;96284.06;;;-0.54;100.00
58385;BME280;44185;47.844;8.966;2023-03-03T05:12:15;96279.72;;;-0.54;100.00
58385;BME280;44185;47.844;8.966;2023-03-03T05:14:41;96286.78;;;-0.58;100.00
58385;BME280;44185;47.844;8.966;2023-03-03T05:17:07;96289.13;;;-0.51;100.00
58385;BME280;44185;47.844;8.966;2023-03-03T05:19:33;96287.38;;;-0.51;100.00
58385;BME280;44185;47.844;8.966;2023-03-03T05:21:58;96285.69;;;-0.52;100.00
58385;BME280;44185;47.844;8.966;2023-03-03T05:24:24;96289.84;;;-0.48;100.00
58385;BME280;44185;47.844;8.966;2023-03-03T05:26:50;96293.63;;;-0.34;100.00
58385;BME280;44185;47.844;8.966;2023-03-03T05:29:15;96284.47;;;-0.43;100.00
58385;BME280;44185;47.844;8.966;2023-03-03T05:31:41;96286.91;;;-0.40;100.00
58385;BME280;44185;47.844;8.966;2023-03-03T05:34:07;96287.72;;;-0.38;100.00
58385;BME280;44185;47.844;8.966;2023-03-03T05:36:33;96294.56;;;-0.35;100.00
58385;BME280;44185;47.844;8.966;2023-03-03T05:38:58;96294.34;;;-0.30;100.00
58385;BME280;44185;47.844;8.966;2023-03-03T05:41:24;96290.25;;;-0.36;100.00
58385;BME280;44185;47.844;8.966;2023-03-03T05:43:50;96289.53;;;-0.40;100.00
58385;BME280;44185;47.844;8.966;2023-03-03T05:46:15;96287.88;;;-0.42;100.00
58385;BME280;44185;47.844;8.966;2023-03-03T05:48:41;96288.59;;;-0.37;100.00
58385;BME280;44185;47.844;8.966;2023-03-03T05:51:08;96296.50;;;-0.40;100.00
58385;BME280;44185;47.844;8.966;2023-03-03T05:53:33;96295.53;;;-0.38;100.00
58385;BME280;44185;47.844;8.966;2023-03-03T05:55:58;96292.63;;;-0.30;100.00
58385;BME280;44185;47.844;8.966;2023-03-03T05:58:24;96299.38;;;-0.26;100.00
58385;BME280;44185;47.844;8.966;2023-03-03T06:00:50;96293.47;;;-0.29;100.00
58385;BME280;44185;47.844;8.966;2023-03-03T06:03:15;96291.63;;;-0.27;100.00
58385;BME280;44185;47.844;8.966;2023-03-03T06:05:41;96301.06;;;-0.25;100.00
58385;BME280;44185;47.844;8.966;2023-03-03T06:08:07;96298.50;;;-0.26;100.00
58385;BME280;44185;47.844;8.966;2023-03-03T06:10:33;96306.47;;;-0.29;100.00
58385;BME280;44185;47.844;8.966;2023-03-03T06:12:58;96309.06;;;-0.29;100.00
58385;BME280;44185;47.844;8.966;2023-03-03T06:15:24;96305.53;;;-0.28;100.00
58385;BME280;44185;47.844;8.966;2023-03-03T06:17:50;96307.44;;;-0.32;100.00
58385;BME280;44185;47.844;8.966;2023-03-03T06:20:15;96310.84;;;-0.31;100.00
58385;BME280;44185;47.844;8.966;2023-03-03T06:22:41;96310.63;;;-0.25;100.00
58385;BME280;44185;47.844;8.966;2023-03-03T06:25:08;96312.25;;;-0.23;100.00
58385;BME280;44185;47.844;8.966;2023-03-03T06:27:34;96325.06;;;-0.18;100.00
58385;BME280;44185;47.844;8.966;2023-03-03T06:29:59;96325.78;;;-0.14;100.00
58385;BME280;44185;47.844;8.966;2023-03-03T06:32:25;96329.25;;;-0.14;100.00
58385;BME280;44185;47.844;8.966;2023-03-03T06:34:50;96329.09;;;-0.10;100.00
58385;BME280;44185;47.844;8.966;2023-03-03T06:37:16;96335.16;;;-0.10;100.00
58385;BME280;44185;47.844;8.966;2023-03-03T06:39:41;96328.00;;;-0.05;100.00
58385;BME280;44185;47.844;8.966;2023-03-03T06:42:08;96333.31;;;-0.08;100.00
58385;BME280;44185;47.844;8.966;2023-03-03T06:44:34;96334.03;;;-0.04;100.00
58385;BME280;44185;47.844;8.966;2023-03-03T06:46:59;96338.16;;;0.02;100.00
58385;BME280;44185;47.844;8.966;2023-03-03T06:49:24;96338.88;;;0.05;100.00
58385;BME280;44185;47.844;8.966;2023-03-03T06:51:50;96354.34;;;0.08;100.00
58385;BME280;44185;47.844;8.966;2023-03-03T06:54:17;96350.75;;;0.11;100.00
58385;BME280;44185;47.844;8.966;2023-03-03T06:56:44;96350.63;;;0.14;100.00
58385;BME280;44185;47.844;8.966;2023-03-03T06:59:13;96357.34;;;0.20;100.00
58385;BME280;44185;47.844;8.966;2023-03-03T07:01:39;96353.69;;;0.24;100.00
58385;BME280;44185;47.844;8.966;2023-03-03T07:04:16;96354.34;;;0.29;100.00
58385;BME280;44185;47.844;8.966;2023-03-03T07:06:45;96355.97;;;0.32;100.00
58385;BME280;44185;47.844;8.966;2023-03-03T07:09:18;96355.00;;;0.35;100.00
58385;BME280;44185;47.844;8.966;2023-03-03T07:11:45;96358.78;;;0.27;100.00
58385;BME280;44185;47.844;8.966;2023-03-03T07:14:15;96358.53;;;0.33;100.00
58385;BME280;44185;47.844;8.966;2023-03-03T07:16:41;96358.31;;;0.38;100.00
58385;BME280;44185;47.844;8.966;2023-03-03T07:19:16;96367.19;;;0.34;100.00
58385;BME280;44185;47.844;8.966;2023-03-03T07:21:43;96368.09;;;0.33;100.00
58385;BME280;44185;47.844;8.966;2023-03-03T07:24:18;96371.53;;;0.33;100.00
58385;BME280;44185;47.844;8.966;2023-03-03T07:26:46;96370.44;;;0.39;100.00
58385;BME280;44185;47.844;8.966;2023-03-03T07:29:20;96372.63;;;0.49;100.00
58385;BME280;44185;47.844;8.966;2023-03-03T07:31:47;96365.59;;;0.51;100.00
58385;BME280;44185;47.844;8.966;2023-03-03T07:34:18;96362.84;;;0.54;100.00
58385;BME280;44185;47.844;8.966;2023-03-03T07:36:44;96367.94;;;0.57;100.00
58385;BME280;44185;47.844;8.966;2023-03-03T07:39:24;96367.47;;;0.68;100.00
58385;BME280;44185;47.844;8.966;2023-03-03T07:41:50;96374.31;;;0.71;100.00
58385;BME280;44185;47.844;8.966;2023-03-03T07:44:20;96369.78;;;0.74;100.00
58385;BME280;44185;47.844;8.966;2023-03-03T07:46:47;96371.44;;;0.77;100.00
58385;BME280;44185;47.844;8.966;2023-03-03T07:49:28;96373.06;;;0.80;100.00
58385;BME280;44185;47.844;8.966;2023-03-03T07:52:28;96380.47;;;0.89;100.00
58385;BME280;44185;47.844;8.966;2023-03-03T07:54:56;96384.75;;;0.90;100.00
58385;BME280;44185;47.844;8.966;2023-03-03T07:57:24;96384.03;;;0.86;100.00
58385;BME280;44185;47.844;8.966;2023-03-03T07:59:53;96385.78;;;0.86;100.00
58385;BME280;44185;47.844;8.966;2023-03-03T08:02:36;96383.84;;;0.91;100.00
58385;BME280;44185;47.844;8.966;2023-03-03T08:05:23;96391.44;;;0.96;100.00
58385;BME280;44185;47.844;8.966;2023-03-03T08:07:51;96395.75;;;0.97;100.00
58385;BME280;44185;47.844;8.966;2023-03-03T08:10:30;96390.31;;;1.02;100.00
58385;BME280;44185;47.844;8.966;2023-03-03T08:13:08;96393.56;;;1.07;100.00
58385;BME280;44185;47.844;8.966;2023-03-03T08:15:39;96397.94;;;1.06;100.00
58385;BME280;44185;47.844;8.966;2023-03-03T08:18:15;96398.72;;;1.08;100.00
58385;BME280;44185;47.844;8.966;2023-03-03T08:20:47;96404.56;;;1.14;100.00
58385;BME280;44185;47.844;8.966;2023-03-03T08:23:14;96408.22;;;1.09;100.00
58385;BME280;44185;47.844;8.966;2023-03-03T08:25:40;96406.38;;;1.11;100.00
58385;BME280;44185;47.844;8.966;2023-03-03T08:28:05;96407.81;;;1.19;100.00
58385;BME280;44185;47.844;8.966;2023-03-03T08:30:31;96416.19;;;1.26;100.00
58385;BME280;44185;47.844;8.966;2023-03-03T08:32:58;96412.47;;;1.31;100.00
58385;BME280;44185;47.844;8.966;2023-03-03T08:35:23;96399.34;;;1.33;100.00
58385;BME280;44185;47.844;8.966;2023-03-03T08:37:49;96404.91;;;1.44;100.00
58385;BME280;44185;47.844;8.966;2023-03-03T08:40:14;96403.94;;;1.47;100.00
58385;BME280;44185;47.844;8.966;2023-03-03T08:42:40;96401.94;;;1.52;100.00
58385;BME280;44185;47.844;8.966;2023-03-03T08:45:06;96407.25;;;1.51;100.00
58385;BME280;44185;47.844;8.966;2023-03-03T08:47:31;96402.44;;;1.61;100.00
58385;BME280;44185;47.844;8.966;2023-03-03T08:49:58;96400.34;;;1.50;100.00
58385;BME280;44185;47.844;8.966;2023-03-03T08:52:24;96398.34;;;1.55;100.00
58385;BME280;44185;47.844;8.966;2023-03-03T08:54:50;96415.69;;;1.56;100.00
58385;BME280;44185;47.844;8.966;2023-03-03T08:57:15;96406.66;;;1.63;100.00
58385;BME280;44185;47.844;8.966;2023-03-03T08:59:41;96404.34;;;1.57;100.00
58385;BME280;44185;47.844;8.966;2023-03-03T09:02:06;96402.53;;;1.59;100.00
58385;BME280;44185;47.844;8.966;2023-03-03T09:04:31;96400.94;;;1.74;100.00
58385;BME280;44185;47.844;8.966;2023-03-03T09:06:58;96403.69;;;1.71;100.00
58385;BME280;44185;47.844;8.966;2023-03-03T09:09:24;96402.47;;;1.78;100.00
58385;BME280;44185;47.844;8.966;2023-03-03T09:11:52;96402.56;;;1.77;100.00
58385;BME280;44185;47.844;8.966;2023-03-03T09:14:18;96408.31;;;1.84;100.00
58385;BME280;44185;47.844;8.966;2023-03-03T09:16:48;96409.88;;;1.88;100.00
58385;BME280;44185;47.844;8.966;2023-03-03T09:19:24;96413.31;;;1.88;100.00
58385;BME280;44185;47.844;8.966;2023-03-03T09:21:50;96411.19;;;1.97;100.00
58385;BME280;44185;47.844;8.966;2023-03-03T09:24:23;96416.25;;;2.00;100.00
58385;BME280;44185;47.844;8.966;2023-03-03T09:26:50;96417.47;;;1.93;100.00
58385;BME280;44185;47.844;8.966;2023-03-03T09:29:20;96418.00;;;1.99;100.00
58385;BME280;44185;47.844;8.966;2023-03-03T09:31:49;96416.25;;;2.18;100.00
58385;BME280;44185;47.844;8.966;2023-03-03T09:34:19;96417.75;;;2.41;100.00
58385;BME280;44185;47.844;8.966;2023-03-03T09:36:45;96418.13;;;2.51;100.00
58385;BME280;44185;47.844;8.966;2023-03-03T09:39:16;96415.38;;;2.54;100.00
58385;BME280;44185;47.844;8.966;2023-03-03T09:42:10;96424.50;;;2.81;100.00
58385;BME280;44185;47.844;8.966;2023-03-03T09:45:05;96420.13;;;2.98;100.00
58385;BME280;44185;47.844;8.966;2023-03-03T09:47:46;96427.06;;;2.99;100.00
58385;BME280;44185;47.844;8.966;2023-03-03T09:50:25;96417.38;;;3.01;100.00
58385;BME280;44185;47.844;8.966;2023-03-03T09:53:05;96425.25;;;2.83;100.00
58385;BME280;44185;47.844;8.966;2023-03-03T09:55:38;96417.31;;;2.85;100.00
58385;BME280;44185;47.844;8.966;2023-03-03T09:58:25;96424.19;;;3.04;100.00
58385;BME280;44185;47.844;8.966;2023-03-03T10:01:01;96422.47;;;3.20;100.00
58385;BME280;44185;47.844;8.966;2023-03-03T10:03:40;96422.63;;;2.83;100.00
58385;BME280;44185;47.844;8.966;2023-03-03T10:06:16;96431.34;;;3.00;100.00
58385;BME280;44185;47.844;8.966;2023-03-03T10:08:56;96417.69;;;3.29;100.00
58385;BME280;44185;47.844;8.966;2023-03-03T10:11:29;96416.41;;;3.36;100.00
58385;BME280;44185;47.844;8.966;2023-03-03T10:14:28;96415.75;;;3.65;100.00
58385;BME280;44185;47.844;8.966;2023-03-03T10:17:08;96415.47;;;3.70;97.37
58385;BME280;44185;47.844;8.966;2023-03-03T10:19:50;96424.50;;;3.64;97.10
58385;BME280;44185;47.844;8.966;2023-03-03T10:22:23;96430.94;;;3.74;96.95
58385;BME280;44185;47.844;8.966;2023-03-03T10:25:06;96421.66;;;3.85;96.54
58385;BME280;44185;47.844;8.966;2023-03-03T10:27:43;96419.94;;;4.00;97.23
58385;BME280;44185;47.844;8.966;2023-03-03T10:30:20;96423.91;;;4.07;95.47
58385;BME280;44185;47.844;8.966;2023-03-03T10:32:52;96414.75;;;4.15;95.09
58385;BME280;44185;47.844;8.966;2023-03-03T10:35:32;96431.78;;;3.75;96.23
58385;BME280;44185;47.844;8.966;2023-03-03T10:38:13;96423.31;;;4.02;95.47
58385;BME280;44185;47.844;8.966;2023-03-03T10:40:46;96421.63;;;4.01;97.21
58385;BME280;44185;47.844;8.966;2023-03-03T10:43:24;96423.47;;;3.99;95.03
58385;BME280;44185;47.844;8.966;2023-03-03T10:49:33;96426.38;;;4.25;96.55
58385;BME280;44185;47.844;8.966;2023-03-03T10:52:23;96420.59;;;4.51;95.36
58385;BME280;44185;47.844;8.966;2023-03-03T10:55:07;96416.59;;;4.74;94.46
58385;BME280;44185;47.844;8.966;2023-03-03T10:57:40;96415.13;;;4.99;91.45
58385;BME280;44185;47.844;8.966;2023-03-03T11:00:20;96416.78;;;4.86;92.63
58385;BME280;44185;47.844;8.966;2023-03-03T11:03:00;96417.56;;;4.88;91.30
58385;BME280;44185;47.844;8.966;2023-03-03T11:05:35;96413.06;;;4.90;92.42
58385;BME280;44185;47.844;8.966;2023-03-03T11:08:08;96412.97;;;5.06;91.78
58385;BME280;44185;47.844;8.966;2023-03-03T11:10:50;96415.78;;;5.03;90.19
58385;BME280;44185;47.844;8.966;2023-03-03T11:13:21;96406.53;;;5.12;91.04
58385;BME280;44185;47.844;8.966;2023-03-03T11:18:49;96409.94;;;4.83;91.25
58385;BME280;44185;47.844;8.966;2023-03-03T11:21:21;96409.31;;;4.80;90.47
58385;BME280;44185;47.844;8.966;2023-03-03T11:24:10;96409.88;;;4.99;90.66
58385;BME280;44185;47.844;8.966;2023-03-03T11:26:49;96404.91;;;5.24;91.10
58385;BME280;44185;47.844;8.966;2023-03-03T11:29:34;96400.13;;;5.16;88.97
58385;BME280;44185;47.844;8.966;2023-03-03T11:32:13;96405.19;;;5.19;89.24
58385;BME280;44185;47.844;8.966;2023-03-03T11:34:54;96398.72;;;5.25;88.63
58385;BME280;44185;47.844;8.966;2023-03-03T11:37:23;96400.00;;;5.47;88.23
58385;BME280;44185;47.844;8.966;2023-03-03T11:39:53;96393.16;;;5.59;87.67
58385;BME280;44185;47.844;8.966;2023-03-03T11:42:24;96384.31;;;5.60;86.80
58385;BME280;44185;47.844;8.966;2023-03-03T11:44:51;96379.28;;;5.85;87.04
58385;BME280;44185;47.844;8.966;2023-03-03T11:47:23;96382.88;;;5.84;87.07
58385;BME280;44185;47.844;8.966;2023-03-03T11:49:55;96378.34;;;6.14;87.30
58385;BME280;44185;47.844;8.966;2023-03-03T11:52:30;96380.81;;;6.02;84.19
58385;BME280;44185;47.844;8.966;2023-03-03T11:55:03;96378.22;;;5.87;87.17
58385;BME280;44185;47.844;8.966;2023-03-03T11:57:36;96377.72;;;6.10;85.87
58385;BME280;44185;47.844;8.966;2023-03-03T12:00:18;96375.31;;;6.20;85.24
58385;BME280;44185;47.844;8.966;2023-03-03T12:06:04;96371.19;;;5.60;87.33
58385;BME280;44185;47.844;8.966;2023-03-03T12:08:49;96360.00;;;5.99;89.58
58385;BME280;44185;47.844;8.966;2023-03-03T12:11:24;96359.22;;;5.84;86.02
58385;BME280;44185;47.844;8.966;2023-03-03T12:13:56;96356.06;;;5.78;88.00
58385;BME280;44185;47.844;8.966;2023-03-03T12:16:33;96355.28;;;5.76;85.48
58385;BME280;44185;47.844;8.966;2023-03-03T12:19:24;96351.34;;;5.84;85.21
58385;BME280;44185;47.844;8.966;2023-03-03T12:22:10;96354.44;;;6.04;88.39
58385;BME280;44185;47.844;8.966;2023-03-03T12:24:50;96357.88;;;5.91;88.33
58385;BME280;44185;47.844;8.966;2023-03-03T12:27:22;96361.31;;;5.78;87.66
58385;BME280;44185;47.844;8.966;2023-03-03T12:30:01;96346.88;;;5.71;86.85
58385;BME280;44185;47.844;8.966;2023-03-03T12:32:40;96348.22;;;5.64;89.46
58385;BME280;44185;47.844;8.966;2023-03-03T12:35:12;96347.13;;;5.81;88.00
58385;BME280;44185;47.844;8.966;2023-03-03T12:37:47;96348.25;;;5.77;88.14
58385;BME280;44185;47.844;8.966;2023-03-03T12:40:18;96355.16;;;5.65;87.10
58385;BME280;44185;47.844;8.966;2023-03-03T12:43:05;96346.19;;;5.54;90.42
58385;BME280;44185;47.844;8.966;2023-03-03T12:45:39;96346.31;;;5.66;88.58
58385;BME280;44185;47.844;8.966;2023-03-03T12:48:08;96345.47;;;5.65;88.02
58385;BME280;44185;47.844;8.966;2023-03-03T12:50:45;96343.06;;;5.62;89.20
58385;BME280;44185;47.844;8.966;2023-03-03T12:53:27;96334.47;;;5.73;87.95
58385;BME280;44185;47.844;8.966;2023-03-03T12:55:59;96340.03;;;5.68;89.36
58385;BME280;44185;47.844;8.966;2023-03-03T12:58:38;96337.34;;;5.55;90.70
58385;BME280;44185;47.844;8.966;2023-03-03T13:01:17;96344.66;;;5.65;90.13
58385;BME280;44185;47.844;8.966;2023-03-03T13:03:53;96330.16;;;5.44;91.03
58385;BME280;44185;47.844;8.966;2023-03-03T13:06:27;96333.50;;;5.61;91.85
58385;BME280;44185;47.844;8.966;2023-03-03T13:09:02;96338.50;;;5.79;90.23
58385;BME280;44185;47.844;8.966;2023-03-03T13:11:42;96341.56;;;5.86;90.40
58385;BME280;44185;47.844;8.966;2023-03-03T13:14:22;96335.66;;;5.82;90.45
58385;BME280;44185;47.844;8.966;2023-03-03T13:17:00;96342.56;;;5.70;91.52
58385;BME280;44185;47.844;8.966;2023-03-03T13:19:31;96344.59;;;5.52;91.59
58385;BME280;44185;47.844;8.966;2023-03-03T13:22:02;96341.97;;;5.52;91.13